createdAt,value
2018-01-15T00:00:54.121Z," 1.95"
2018-01-15T00:05:50.500Z," 1.88"
2018-01-15T00:10:46.977Z," 1.97"
2018-01-15T00:15:43.487Z," 2.04"
2018-01-15T00:20:40.325Z," 1.89"
2018-01-15T00:25:36.238Z," 1.81"
2018-01-15T00:30:32.721Z," 1.88"
2018-01-15T00:35:29.116Z," 1.74"
2018-01-15T00:40:26.591Z," 1.84"
2018-01-15T00:45:22.695Z," 1.78"
2018-01-15T00:50:19.315Z," 1.76"
2018-01-15T00:55:15.837Z," 1.70"
2018-01-15T01:00:12.395Z," 1.78"
2018-01-15T01:05:08.961Z," 1.70"
2018-01-15T01:10:05.735Z," 1.67"
2018-01-15T01:15:01.162Z," 1.68"
2018-01-15T01:19:56.690Z," 1.76"
2018-01-15T01:24:53.450Z," 1.67"
2018-01-15T01:29:49.027Z," 1.67"
2018-01-15T01:34:44.881Z," 1.67"
2018-01-15T01:39:41.640Z," 1.67"
2018-01-15T01:44:37.986Z," 1.71"
2018-01-15T01:49:33.251Z," 1.74"
2018-01-15T01:54:28.986Z," 1.77"
2018-01-15T01:59:25.448Z," 1.71"
2018-01-15T02:04:22.683Z," 1.73"
2018-01-15T02:09:19.115Z," 1.77"
2018-01-15T02:14:14.786Z," 1.76"
2018-01-15T02:19:11.565Z," 1.76"
2018-01-15T02:24:08.978Z," 1.81"
2018-01-15T02:29:05.016Z," 1.70"
2018-01-15T02:34:01.463Z," 1.88"
2018-01-15T02:38:58.090Z," 1.92"
2018-01-15T02:43:54.573Z," 2.02"
2018-01-15T02:48:50.069Z," 2.02"
2018-01-15T02:53:45.984Z," 2.06"
2018-01-15T02:58:42.781Z," 1.95"
2018-01-15T03:03:40.317Z," 2.04"
2018-01-15T03:08:38.100Z," 1.95"
2018-01-15T03:13:34.039Z," 2.13"
2018-01-15T03:18:30.599Z," 2.22"
2018-01-15T03:23:27.094Z," 2.20"
2018-01-15T03:28:24.557Z," 2.25"
2018-01-15T03:33:20.918Z," 2.29"
2018-01-15T03:38:17.652Z," 2.32"
2018-01-15T03:43:15.223Z," 2.33"
2018-01-15T03:48:10.415Z," 2.43"
2018-01-15T03:53:08.969Z," 2.29"
2018-01-15T03:58:05.174Z," 2.26"
2018-01-15T04:03:00.456Z," 2.25"
2018-01-15T04:07:57.196Z," 2.15"
2018-01-15T04:12:54.057Z," 2.17"
2018-01-15T04:17:51.427Z," 2.28"
2018-01-15T04:22:48.583Z," 2.31"
2018-01-15T04:27:44.841Z," 2.35"
2018-01-15T04:32:43.288Z," 2.47"
2018-01-15T04:37:39.728Z," 2.39"
2018-01-15T04:42:37.162Z," 2.42"
2018-01-15T04:47:34.635Z," 2.44"
2018-01-15T04:52:30.984Z," 2.38"
2018-01-15T04:57:28.290Z," 2.42"
2018-01-15T05:02:23.906Z," 2.53"
2018-01-15T05:07:22.486Z," 2.53"
2018-01-15T05:12:19.526Z," 2.57"
2018-01-15T05:17:16.849Z," 2.62"
2018-01-15T05:22:13.187Z," 2.65"
2018-01-15T05:27:09.683Z," 2.67"
2018-01-15T05:32:06.057Z," 2.65"
2018-01-15T05:37:03.745Z," 2.77"
2018-01-15T05:42:00.862Z," 2.83"
2018-01-15T05:46:58.119Z," 2.82"
2018-01-15T05:51:54.630Z," 2.82"
2018-01-15T05:56:50.441Z," 2.90"
2018-01-15T06:01:47.100Z," 3.07"
2018-01-15T06:06:43.748Z," 3.14"
2018-01-15T06:11:40.498Z," 3.23"
2018-01-15T06:16:39.238Z," 3.31"
2018-01-15T06:21:38.938Z," 3.31"
2018-01-15T06:26:34.398Z," 3.45"
2018-01-15T06:31:29.802Z," 3.48"
2018-01-15T06:36:26.430Z," 3.47"
2018-01-15T06:41:22.755Z," 3.63"
2018-01-15T06:46:20.926Z," 3.70"
2018-01-15T06:51:20.096Z," 3.66"
2018-01-15T06:56:16.074Z," 3.86"
2018-01-15T07:01:13.555Z," 3.86"
2018-01-15T07:06:10.124Z," 3.88"
2018-01-15T07:11:06.673Z," 3.86"
2018-01-15T07:16:03.980Z," 3.76"
2018-01-15T07:21:04.004Z," 3.81"
2018-01-15T07:26:00.838Z," 3.69"
2018-01-15T07:30:57.256Z," 3.74"
2018-01-15T07:35:54.868Z," 3.70"
2018-01-15T07:40:51.025Z," 3.76"
2018-01-15T07:45:46.608Z," 3.81"
2018-01-15T07:50:44.442Z," 3.88"
2018-01-15T07:55:40.362Z," 3.86"
2018-01-15T08:00:37.050Z," 3.94"
2018-01-15T08:05:33.693Z," 4.05"
2018-01-15T08:10:29.198Z," 4.10"
2018-01-15T08:15:25.012Z," 4.22"
2018-01-15T08:20:21.218Z," 4.28"
2018-01-15T08:25:17.074Z," 4.32"
2018-01-15T08:30:12.902Z," 4.41"
2018-01-15T08:35:09.839Z," 4.53"
2018-01-15T08:40:07.650Z," 4.44"
2018-01-15T08:45:03.886Z," 4.62"
2018-01-15T08:50:00.905Z," 4.59"
2018-01-15T08:54:56.479Z," 4.77"
2018-01-15T08:59:54.333Z," 4.82"
2018-01-15T09:04:51.703Z," 4.96"
2018-01-15T09:09:47.881Z," 5.04"
2018-01-15T09:14:44.903Z," 5.15"
2018-01-15T09:19:41.477Z," 5.21"
2018-01-15T09:24:36.951Z," 5.38"
2018-01-15T09:29:32.822Z," 5.44"
2018-01-15T09:34:30.707Z," 5.61"
2018-01-15T09:39:27.083Z," 5.56"
2018-01-15T09:44:23.161Z," 5.72"
2018-01-15T09:49:20.077Z," 5.79"
2018-01-15T09:54:17.705Z," 5.79"
2018-01-15T09:59:14.358Z," 5.87"
2018-01-15T10:04:10.184Z," 5.94"
2018-01-15T10:09:06.616Z," 6.05"
2018-01-15T10:14:02.453Z," 6.17"
2018-01-15T10:18:58.480Z," 6.24"
2018-01-15T10:23:55.371Z," 6.39"
2018-01-15T10:28:52.745Z," 6.24"
2018-01-15T10:33:49.271Z," 6.38"
2018-01-15T10:38:45.663Z," 6.44"
2018-01-15T10:43:41.248Z," 6.48"
2018-01-15T10:48:37.126Z," 6.54"
2018-01-15T10:53:34.607Z," 6.59"
2018-01-15T10:58:30.302Z," 6.48"
2018-01-15T11:03:28.122Z," 6.79"
2018-01-15T11:08:23.431Z," 6.84"
2018-01-15T11:13:19.308Z," 6.82"
2018-01-15T11:18:16.475Z," 7.06"
2018-01-15T11:23:13.040Z," 7.10"
2018-01-15T11:28:10.093Z," 7.21"
2018-01-15T11:33:06.342Z," 7.40"
2018-01-15T11:38:03.364Z," 7.39"
2018-01-15T11:42:58.954Z," 7.35"
2018-01-15T11:47:54.866Z," 7.32"
2018-01-15T11:52:51.941Z," 7.36"
2018-01-15T11:57:47.495Z," 7.42"
2018-01-15T12:02:44.324Z," 7.56"
2018-01-15T12:07:39.916Z," 7.56"
2018-01-15T12:12:37.891Z," 7.60"
2018-01-15T12:17:35.140Z," 7.63"
2018-01-15T12:22:30.969Z," 7.66"
2018-01-15T12:27:26.796Z," 7.61"
2018-01-15T12:32:23.704Z," 7.58"
2018-01-15T12:37:20.257Z," 7.69"
2018-01-15T12:42:21.014Z," 7.63"
2018-01-15T12:47:16.740Z," 7.61"
2018-01-15T12:52:15.331Z," 7.63"
2018-01-15T12:57:11.565Z," 7.75"
2018-01-15T13:02:08.578Z," 7.72"
2018-01-15T13:07:04.616Z," 7.80"
2018-01-15T13:12:01.268Z," 7.66"
2018-01-15T13:16:57.924Z," 7.76"
2018-01-15T13:21:53.288Z," 7.70"
2018-01-15T13:26:50.372Z," 7.66"
2018-01-15T13:31:46.903Z," 7.61"
2018-01-15T13:36:43.167Z," 7.56"
2018-01-15T13:41:39.953Z," 7.58"
2018-01-15T13:46:36.337Z," 7.32"
2018-01-15T13:51:32.702Z," 7.20"
2018-01-15T13:56:31.926Z," 7.14"
2018-01-15T14:01:26.730Z," 7.05"
2018-01-15T14:06:23.194Z," 7.02"
2018-01-15T14:11:18.545Z," 6.85"
2018-01-15T14:16:14.298Z," 6.79"
2018-01-15T14:21:11.788Z," 6.69"
2018-01-15T14:26:07.333Z," 6.67"
2018-01-15T14:31:04.400Z," 6.72"
2018-01-15T14:36:00.372Z," 6.62"
2018-01-15T14:40:57.148Z," 6.63"
2018-01-15T14:45:53.798Z," 6.52"
2018-01-15T14:50:50.306Z," 6.60"
2018-01-15T14:55:46.692Z," 6.56"
2018-01-15T15:00:43.059Z," 6.52"
2018-01-15T15:05:38.721Z," 6.46"
2018-01-15T15:10:35.440Z," 6.35"
2018-01-15T15:15:33.673Z," 6.41"
2018-01-15T15:20:29.818Z," 6.31"
2018-01-15T15:25:25.173Z," 6.36"
2018-01-15T15:30:21.056Z," 6.39"
2018-01-15T15:35:17.582Z," 6.33"
2018-01-15T15:40:13.322Z," 6.35"
2018-01-15T15:45:09.123Z," 6.33"
2018-01-15T15:50:05.885Z," 6.42"
2018-01-15T15:55:01.463Z," 6.38"
2018-01-15T15:59:57.308Z," 6.31"
2018-01-15T16:04:52.962Z," 6.41"
2018-01-15T16:09:48.580Z," 6.42"
2018-01-15T16:14:45.939Z," 6.36"
2018-01-15T16:19:42.560Z," 6.39"
2018-01-15T16:24:40.255Z," 6.33"
2018-01-15T16:29:36.634Z," 6.30"
2018-01-15T16:34:33.886Z," 6.28"
2018-01-15T16:39:29.139Z," 6.26"
2018-01-15T16:44:25.006Z," 6.30"
2018-01-15T16:49:23.189Z," 6.39"
2018-01-15T16:54:19.413Z," 6.44"
2018-01-15T16:59:15.018Z," 6.39"
2018-01-15T17:04:11.593Z," 6.38"
2018-01-15T17:09:09.414Z," 6.44"
2018-01-15T17:14:05.793Z," 6.46"
2018-01-15T17:19:02.318Z," 6.49"
2018-01-15T17:23:58.952Z," 6.56"
2018-01-15T17:28:54.531Z," 6.54"
2018-01-15T17:33:51.300Z," 6.42"
2018-01-15T17:38:48.991Z," 6.27"
2018-01-15T17:43:43.836Z," 6.16"
2018-01-15T17:48:39.117Z," 6.04"
2018-01-15T17:53:34.714Z," 6.02"
2018-01-15T17:58:30.869Z," 5.97"
2018-01-15T18:03:26.364Z," 5.84"
2018-01-15T18:08:23.139Z," 5.84"
2018-01-15T18:13:18.493Z," 5.80"
2018-01-15T18:18:13.993Z," 5.86"
2018-01-15T18:23:09.934Z," 5.89"
2018-01-15T18:28:06.702Z," 5.89"
2018-01-15T18:33:02.143Z," 5.84"
2018-01-15T18:37:57.865Z," 5.93"
2018-01-15T18:42:53.710Z," 5.83"
2018-01-15T18:47:49.473Z," 5.75"
2018-01-15T18:52:44.906Z," 5.66"
2018-01-15T18:57:40.777Z," 5.68"
2018-01-15T19:02:37.255Z," 5.69"
2018-01-15T19:07:33.043Z," 5.61"
2018-01-15T19:12:28.714Z," 5.68"
2018-01-15T19:17:24.319Z," 5.62"
2018-01-15T19:22:20.023Z," 5.66"
2018-01-15T19:27:15.949Z," 5.66"
2018-01-15T19:32:12.825Z," 5.59"
2018-01-15T19:37:08.332Z," 5.75"
2018-01-15T19:42:06.082Z," 5.73"
2018-01-15T19:47:02.220Z," 5.82"
2018-01-15T19:51:58.713Z," 5.83"
2018-01-15T19:56:55.253Z," 5.73"
2018-01-15T20:01:51.772Z," 5.84"
2018-01-15T20:06:47.582Z," 5.84"
2018-01-15T20:11:43.361Z," 6.07"
2018-01-15T20:16:39.759Z," 5.90"
2018-01-15T20:21:36.585Z," 6.09"
2018-01-15T20:26:32.171Z," 6.09"
2018-01-15T20:31:28.087Z," 6.12"
2018-01-15T20:36:23.518Z," 6.19"
2018-01-15T20:41:19.390Z," 6.14"
2018-01-15T20:46:17.058Z," 6.08"
2018-01-15T20:51:13.097Z," 6.08"
2018-01-15T20:56:08.491Z," 6.08"
2018-01-15T21:01:05.460Z," 6.04"
2018-01-15T21:06:00.811Z," 6.04"
2018-01-15T21:10:57.513Z," 6.04"
2018-01-15T21:15:53.953Z," 6.04"
2018-01-15T21:20:49.322Z," 5.97"
2018-01-15T21:25:44.785Z," 6.05"
2018-01-15T21:30:41.763Z," 6.02"
2018-01-15T21:35:38.802Z," 6.04"
2018-01-15T21:40:34.117Z," 6.02"
2018-01-15T21:45:30.557Z," 5.99"
2018-01-15T21:50:25.921Z," 6.01"
2018-01-15T21:55:23.201Z," 6.20"
2018-01-15T22:00:18.941Z," 6.17"
2018-01-15T22:05:14.105Z," 6.16"
2018-01-15T22:10:11.069Z," 6.16"
2018-01-15T22:15:06.599Z," 6.22"
2018-01-15T22:20:02.892Z," 6.24"
2018-01-15T22:24:59.760Z," 6.26"
2018-01-15T22:29:55.206Z," 6.26"
2018-01-15T22:34:50.706Z," 6.35"
2018-01-15T22:39:47.095Z," 6.38"
2018-01-15T22:44:43.533Z," 6.31"
2018-01-15T22:49:39.093Z," 6.49"
2018-01-15T22:54:34.816Z," 6.59"
2018-01-15T22:59:31.607Z," 6.54"
2018-01-15T23:04:26.950Z," 6.62"
2018-01-15T23:09:22.565Z," 6.66"
2018-01-15T23:14:18.409Z," 6.62"
2018-01-15T23:19:14.015Z," 6.66"
2018-01-15T23:24:09.729Z," 6.74"
2018-01-15T23:29:06.443Z," 6.72"
2018-01-15T23:39:01.869Z," 6.77"
2018-01-15T23:43:57.854Z," 6.81"
2018-01-15T23:48:53.486Z," 6.92"
2018-01-15T23:53:50.208Z," 6.89"
2018-01-15T23:58:46.566Z," 6.96"
